sensor_id;sensor_type;location;lat;lon;timestamp;pressure;altitude;pressure_sealevel;temperature;humidity
80566;BME280;69915;54.862;10.730;2023-07-13T00:01:27;100976.88;;;14.93;89.50
80566;BME280;69915;54.862;10.730;2023-07-13T00:03:54;100996.19;;;15.02;89.93
80566;BME280;69915;54.862;10.730;2023-07-13T00:06:20;100981.94;;;15.00;89.75
80566;BME280;69915;54.862;10.730;2023-07-13T00:08:46;100980.19;;;15.04;89.69
80566;BME280;69915;54.862;10.730;2023-07-13T00:11:15;100985.06;;;15.07;89.36
80566;BME280;69915;54.862;10.730;2023-07-13T00:13:41;100980.53;;;15.11;89.28
80566;BME280;69915;54.862;10.730;2023-07-13T00:16:08;100960.91;;;15.04;89.36
80566;BME280;69915;54.862;10.730;2023-07-13T00:18:34;100971.78;;;15.09;89.33
80566;BME280;69915;54.862;10.730;2023-07-13T00:20:59;100981.16;;;15.08;89.35
80566;BME280;69915;54.862;10.730;2023-07-13T00:23:38;100957.34;;;15.03;89.09
80566;BME280;69915;54.862;10.730;2023-07-13T00:26:06;100980.03;;;15.09;88.74
80566;BME280;69915;54.862;10.730;2023-07-13T00:28:33;100980.53;;;15.11;88.72
80566;BME280;69915;54.862;10.730;2023-07-13T00:30:59;100966.34;;;14.95;88.95
80566;BME280;69915;54.862;10.730;2023-07-13T00:33:27;100979.41;;;15.12;88.76
80566;BME280;69915;54.862;10.730;2023-07-13T00:35:54;100969.94;;;14.96;88.94
80566;BME280;69915;54.862;10.730;2023-07-13T00:38:19;100983.91;;;15.08;88.42
80566;BME280;69915;54.862;10.730;2023-07-13T00:40:44;100979.22;;;15.08;88.48
80566;BME280;69915;54.862;10.730;2023-07-13T00:43:16;100989.31;;;15.13;88.80
80566;BME280;69915;54.862;10.730;2023-07-13T00:48:09;100972.88;;;14.99;88.88
80566;BME280;69915;54.862;10.730;2023-07-13T00:50:35;100978.94;;;15.10;89.06
80566;BME280;69915;54.862;10.730;2023-07-13T00:53:00;100972.56;;;15.01;89.20
80566;BME280;69915;54.862;10.730;2023-07-13T00:55:26;100969.84;;;15.09;88.89
80566;BME280;69915;54.862;10.730;2023-07-13T00:57:52;100977.19;;;15.22;88.93
80566;BME280;69915;54.862;10.730;2023-07-13T01:00:19;100977.88;;;15.28;89.09
80566;BME280;69915;54.862;10.730;2023-07-13T01:02:47;100970.03;;;15.13;89.29
80566;BME280;69915;54.862;10.730;2023-07-13T01:05:20;100964.63;;;15.08;89.56
80566;BME280;69915;54.862;10.730;2023-07-13T01:07:49;100957.84;;;15.05;89.67
80566;BME280;69915;54.862;10.730;2023-07-13T01:10:16;100971.47;;;15.10;89.59
80566;BME280;69915;54.862;10.730;2023-07-13T01:12:41;100977.66;;;15.16;89.75
80566;BME280;69915;54.862;10.730;2023-07-13T01:15:36;100972.63;;;15.18;89.63
80566;BME280;69915;54.862;10.730;2023-07-13T01:18:04;100952.06;;;15.15;89.04
80566;BME280;69915;54.862;10.730;2023-07-13T01:20:30;100941.19;;;15.10;89.25
80566;BME280;69915;54.862;10.730;2023-07-13T01:22:56;100951.09;;;15.20;89.62
80566;BME280;69915;54.862;10.730;2023-07-13T01:25:22;100959.25;;;15.34;89.02
80566;BME280;69915;54.862;10.730;2023-07-13T01:27:47;100956.16;;;15.35;88.98
80566;BME280;69915;54.862;10.730;2023-07-13T01:30:13;100942.88;;;15.29;88.95
80566;BME280;69915;54.862;10.730;2023-07-13T01:32:38;100946.28;;;15.25;88.83
80566;BME280;69915;54.862;10.730;2023-07-13T01:35:07;100961.66;;;15.35;88.89
80566;BME280;69915;54.862;10.730;2023-07-13T01:37:33;100957.63;;;15.33;89.10
80566;BME280;69915;54.862;10.730;2023-07-13T01:40:03;100956.47;;;15.25;89.43
80566;BME280;69915;54.862;10.730;2023-07-13T01:42:29;100976.22;;;15.27;89.60
80566;BME280;69915;54.862;10.730;2023-07-13T01:44:55;100959.97;;;15.17;90.08
80566;BME280;69915;54.862;10.730;2023-07-13T01:47:20;100969.91;;;15.26;90.08
80566;BME280;69915;54.862;10.730;2023-07-13T01:49:45;100968.97;;;15.31;90.27
80566;BME280;69915;54.862;10.730;2023-07-13T01:52:12;100950.78;;;15.21;90.17
80566;BME280;69915;54.862;10.730;2023-07-13T01:54:38;100957.31;;;15.34;90.26
80566;BME280;69915;54.862;10.730;2023-07-13T01:57:03;100946.94;;;15.31;89.67
80566;BME280;69915;54.862;10.730;2023-07-13T01:59:29;100981.19;;;15.47;89.91
80566;BME280;69915;54.862;10.730;2023-07-13T02:01:54;100941.69;;;15.21;90.19
80566;BME280;69915;54.862;10.730;2023-07-13T02:04:20;100964.59;;;15.39;89.91
80566;BME280;69915;54.862;10.730;2023-07-13T02:06:45;100956.00;;;15.32;90.24
80566;BME280;69915;54.862;10.730;2023-07-13T02:09:11;100965.41;;;15.39;89.94
80566;BME280;69915;54.862;10.730;2023-07-13T02:11:36;100967.22;;;15.44;89.78
80566;BME280;69915;54.862;10.730;2023-07-13T02:14:02;100942.88;;;15.29;89.87
80566;BME280;69915;54.862;10.730;2023-07-13T02:16:28;100935.25;;;15.25;90.21
80566;BME280;69915;54.862;10.730;2023-07-13T02:18:54;100933.78;;;15.28;89.91
80566;BME280;69915;54.862;10.730;2023-07-13T02:21:21;100967.91;;;15.49;90.03
80566;BME280;69915;54.862;10.730;2023-07-13T02:23:47;100944.28;;;15.26;90.51
80566;BME280;69915;54.862;10.730;2023-07-13T02:26:13;100958.16;;;15.43;90.83
80566;BME280;69915;54.862;10.730;2023-07-13T02:28:38;100960.09;;;15.43;90.23
80566;BME280;69915;54.862;10.730;2023-07-13T02:31:08;100951.66;;;15.39;90.04
80566;BME280;69915;54.862;10.730;2023-07-13T02:33:35;100958.16;;;15.43;89.93
80566;BME280;69915;54.862;10.730;2023-07-13T02:36:01;100960.56;;;15.45;89.72
80566;BME280;69915;54.862;10.730;2023-07-13T02:38:26;100965.41;;;15.39;89.80
80566;BME280;69915;54.862;10.730;2023-07-13T02:40:52;100957.97;;;15.40;89.89
80566;BME280;69915;54.862;10.730;2023-07-13T02:43:18;100960.38;;;15.41;89.54
80566;BME280;69915;54.862;10.730;2023-07-13T02:45:44;100946.13;;;15.39;88.66
80566;BME280;69915;54.862;10.730;2023-07-13T02:48:10;100958.03;;;15.48;88.16
80566;BME280;69915;54.862;10.730;2023-07-13T02:50:35;100948.00;;;15.52;87.38
80566;BME280;69915;54.862;10.730;2023-07-13T02:53:01;100949.13;;;15.51;86.87
80566;BME280;69915;54.862;10.730;2023-07-13T02:55:26;100947.31;;;15.47;86.90
80566;BME280;69915;54.862;10.730;2023-07-13T02:57:52;100944.25;;;15.48;86.74
80566;BME280;69915;54.862;10.730;2023-07-13T03:00:17;100947.16;;;15.52;87.26
80566;BME280;69915;54.862;10.730;2023-07-13T03:02:43;100933.84;;;15.45;87.62
80566;BME280;69915;54.862;10.730;2023-07-13T03:05:09;100943.59;;;15.51;87.87
80566;BME280;69915;54.862;10.730;2023-07-13T03:07:38;100928.47;;;15.40;88.17
80566;BME280;69915;54.862;10.730;2023-07-13T03:10:04;100928.59;;;15.35;88.56
80566;BME280;69915;54.862;10.730;2023-07-13T03:12:31;100937.88;;;15.39;88.82
80566;BME280;69915;54.862;10.730;2023-07-13T03:14:57;100930.72;;;15.38;88.47
80566;BME280;69915;54.862;10.730;2023-07-13T03:17:23;100952.00;;;15.46;88.65
80566;BME280;69915;54.862;10.730;2023-07-13T03:19:48;100953.63;;;15.47;89.24
80566;BME280;69915;54.862;10.730;2023-07-13T03:22:19;100944.25;;;15.48;88.81
80566;BME280;69915;54.862;10.730;2023-07-13T03:24:45;100939.72;;;15.52;88.20
80566;BME280;69915;54.862;10.730;2023-07-13T03:27:11;100943.13;;;15.58;87.29
80566;BME280;69915;54.862;10.730;2023-07-13T03:29:36;100951.59;;;15.70;87.55
80566;BME280;69915;54.862;10.730;2023-07-13T03:32:02;100954.69;;;15.77;86.56
80566;BME280;69915;54.862;10.730;2023-07-13T03:34:30;100935.22;;;15.73;86.19
80566;BME280;69915;54.862;10.730;2023-07-13T03:36:56;100944.31;;;15.91;86.31
80566;BME280;69915;54.862;10.730;2023-07-13T03:39:22;100939.47;;;16.05;84.87
80566;BME280;69915;54.862;10.730;2023-07-13T03:41:47;100956.00;;;16.14;84.95
80566;BME280;69915;54.862;10.730;2023-07-13T03:44:13;100961.34;;;16.19;85.20
80566;BME280;69915;54.862;10.730;2023-07-13T03:46:38;100955.19;;;16.30;84.23
80566;BME280;69915;54.862;10.730;2023-07-13T03:49:04;100939.91;;;16.33;82.90
80566;BME280;69915;54.862;10.730;2023-07-13T03:51:30;100953.22;;;16.48;81.81
80566;BME280;69915;54.862;10.730;2023-07-13T03:53:56;100944.94;;;16.48;81.62
80566;BME280;69915;54.862;10.730;2023-07-13T03:56:22;100961.19;;;16.58;81.39
80566;BME280;69915;54.862;10.730;2023-07-13T03:58:49;100930.81;;;16.50;81.99
80566;BME280;69915;54.862;10.730;2023-07-13T04:01:17;100950.78;;;16.64;81.16
80566;BME280;69915;54.862;10.730;2023-07-13T04:03:44;100958.41;;;16.67;79.64
80566;BME280;69915;54.862;10.730;2023-07-13T04:06:21;100956.31;;;16.72;79.31
80566;BME280;69915;54.862;10.730;2023-07-13T04:08:55;100950.66;;;16.60;79.37
80566;BME280;69915;54.862;10.730;2023-07-13T04:11:23;100965.06;;;16.74;79.20
80566;BME280;69915;54.862;10.730;2023-07-13T04:13:49;100933.09;;;16.65;78.94
80566;BME280;69915;54.862;10.730;2023-07-13T04:16:16;100954.47;;;16.76;79.62
80566;BME280;69915;54.862;10.730;2023-07-13T04:18:42;100937.94;;;16.68;80.25
80566;BME280;69915;54.862;10.730;2023-07-13T04:21:07;100965.84;;;16.83;80.45
80566;BME280;69915;54.862;10.730;2023-07-13T04:23:38;100960.50;;;16.78;81.27
80566;BME280;69915;54.862;10.730;2023-07-13T04:26:05;100966.31;;;16.85;81.52
80566;BME280;69915;54.862;10.730;2023-07-13T04:28:31;100960.78;;;16.85;81.24
80566;BME280;69915;54.862;10.730;2023-07-13T04:30:57;100950.78;;;16.72;81.94
80566;BME280;69915;54.862;10.730;2023-07-13T04:33:22;100960.63;;;16.82;82.64
80566;BME280;69915;54.862;10.730;2023-07-13T04:35:49;100962.91;;;16.88;82.39
80566;BME280;69915;54.862;10.730;2023-07-13T04:38:15;100965.81;;;16.92;82.39
80566;BME280;69915;54.862;10.730;2023-07-13T04:40:44;100953.94;;;16.92;82.62
80566;BME280;69915;54.862;10.730;2023-07-13T04:43:10;100963.69;;;16.98;82.40
80566;BME280;69915;54.862;10.730;2023-07-13T04:45:36;100955.25;;;16.94;82.43
80566;BME280;69915;54.862;10.730;2023-07-13T04:48:01;100965.66;;;16.88;82.89
80566;BME280;69915;54.862;10.730;2023-07-13T04:50:27;100958.69;;;16.82;82.81
80566;BME280;69915;54.862;10.730;2023-07-13T04:52:53;100947.69;;;16.74;82.67
80566;BME280;69915;54.862;10.730;2023-07-13T04:55:19;100964.72;;;16.84;82.72
80566;BME280;69915;54.862;10.730;2023-07-13T04:57:45;100964.34;;;16.95;82.22
80566;BME280;69915;54.862;10.730;2023-07-13T05:00:12;100950.00;;;17.10;81.82
80566;BME280;69915;54.862;10.730;2023-07-13T05:02:39;100968.50;;;17.56;80.50
80566;BME280;69915;54.862;10.730;2023-07-13T05:05:05;100956.25;;;17.65;79.15
80566;BME280;69915;54.862;10.730;2023-07-13T05:07:31;100949.66;;;17.78;78.42
80566;BME280;69915;54.862;10.730;2023-07-13T05:09:59;100956.00;;;18.00;78.15
80566;BME280;69915;54.862;10.730;2023-07-13T05:12:25;100952.22;;;18.25;76.63
80566;BME280;69915;54.862;10.730;2023-07-13T05:14:51;100964.50;;;18.36;76.88
80566;BME280;69915;54.862;10.730;2023-07-13T05:17:16;100963.53;;;18.32;76.40
80566;BME280;69915;54.862;10.730;2023-07-13T05:19:42;100976.69;;;18.35;76.29
80566;BME280;69915;54.862;10.730;2023-07-13T05:22:08;100970.56;;;18.29;76.42
80566;BME280;69915;54.862;10.730;2023-07-13T05:24:33;100970.69;;;18.33;76.63
80566;BME280;69915;54.862;10.730;2023-07-13T05:26:59;100981.91;;;18.57;76.43
80566;BME280;69915;54.862;10.730;2023-07-13T05:29:24;100985.94;;;18.80;75.61
80566;BME280;69915;54.862;10.730;2023-07-13T05:31:50;100992.91;;;18.98;74.27
80566;BME280;69915;54.862;10.730;2023-07-13T05:34:15;100992.22;;;19.01;74.50
80566;BME280;69915;54.862;10.730;2023-07-13T05:36:41;100997.69;;;18.77;74.98
80566;BME280;69915;54.862;10.730;2023-07-13T05:39:07;100991.94;;;18.50;75.17
80566;BME280;69915;54.862;10.730;2023-07-13T05:41:32;100989.88;;;18.17;76.48
80566;BME280;69915;54.862;10.730;2023-07-13T05:43:58;100990.28;;;18.07;77.09
80566;BME280;69915;54.862;10.730;2023-07-13T05:46:23;100991.38;;;17.94;78.22
80566;BME280;69915;54.862;10.730;2023-07-13T05:48:49;100982.84;;;17.78;79.32
80566;BME280;69915;54.862;10.730;2023-07-13T05:51:14;101010.69;;;17.73;78.53
80566;BME280;69915;54.862;10.730;2023-07-13T05:53:40;100988.16;;;17.54;79.91
80566;BME280;69915;54.862;10.730;2023-07-13T05:56:05;101007.19;;;17.56;80.01
80566;BME280;69915;54.862;10.730;2023-07-13T05:58:31;101002.66;;;17.51;80.07
80566;BME280;69915;54.862;10.730;2023-07-13T06:01:05;101024.09;;;17.63;79.97
80566;BME280;69915;54.862;10.730;2023-07-13T06:03:32;101014.34;;;17.57;80.12
80566;BME280;69915;54.862;10.730;2023-07-13T06:05:57;101007.34;;;17.88;80.05
80566;BME280;69915;54.862;10.730;2023-07-13T06:08:25;101004.53;;;18.18;80.32
80566;BME280;69915;54.862;10.730;2023-07-13T06:10:51;101010.88;;;17.98;80.75
80566;BME280;69915;54.862;10.730;2023-07-13T06:13:16;100992.69;;;17.59;81.86
80566;BME280;69915;54.862;10.730;2023-07-13T06:15:42;101004.03;;;17.28;83.17
80566;BME280;69915;54.862;10.730;2023-07-13T06:18:07;101032.25;;;16.96;82.14
80566;BME280;69915;54.862;10.730;2023-07-13T06:20:34;101039.47;;;16.62;81.72
80566;BME280;69915;54.862;10.730;2023-07-13T06:23:01;101042.66;;;16.30;82.49
80566;BME280;69915;54.862;10.730;2023-07-13T06:25:27;101016.66;;;15.97;83.49
80566;BME280;69915;54.862;10.730;2023-07-13T06:27:52;101025.38;;;15.82;80.95
80566;BME280;69915;54.862;10.730;2023-07-13T06:30:18;101041.53;;;15.57;81.46
80566;BME280;69915;54.862;10.730;2023-07-13T06:32:43;101047.41;;;15.64;82.82
80566;BME280;69915;54.862;10.730;2023-07-13T06:35:08;101045.09;;;15.58;82.67
80566;BME280;69915;54.862;10.730;2023-07-13T06:37:37;101044.88;;;15.46;82.59
80566;BME280;69915;54.862;10.730;2023-07-13T06:40:03;101041.97;;;15.20;83.42
80566;BME280;69915;54.862;10.730;2023-07-13T06:42:29;101052.31;;;15.14;85.22
80566;BME280;69915;54.862;10.730;2023-07-13T06:44:54;101041.59;;;15.04;84.68
80566;BME280;69915;54.862;10.730;2023-07-13T06:47:21;101059.75;;;15.14;85.11
80566;BME280;69915;54.862;10.730;2023-07-13T06:49:46;101048.13;;;15.17;85.23
80566;BME280;69915;54.862;10.730;2023-07-13T06:52:12;101049.16;;;15.30;86.39
80566;BME280;69915;54.862;10.730;2023-07-13T06:54:37;101059.34;;;15.29;86.30
80566;BME280;69915;54.862;10.730;2023-07-13T06:57:03;101042.72;;;15.34;87.87
80566;BME280;69915;54.862;10.730;2023-07-13T06:59:28;101029.53;;;15.53;87.60
80566;BME280;69915;54.862;10.730;2023-07-13T07:01:54;101017.13;;;15.82;84.90
80566;BME280;69915;54.862;10.730;2023-07-13T07:04:19;101029.03;;;16.76;84.84
80566;BME280;69915;54.862;10.730;2023-07-13T07:06:45;101032.69;;;17.23;81.41
80566;BME280;69915;54.862;10.730;2023-07-13T07:09:11;101023.09;;;17.67;80.64
80566;BME280;69915;54.862;10.730;2023-07-13T07:11:36;101033.72;;;17.48;79.37
80566;BME280;69915;54.862;10.730;2023-07-13T07:14:02;101016.22;;;17.73;80.33
80566;BME280;69915;54.862;10.730;2023-07-13T07:16:27;101012.31;;;18.78;77.51
80566;BME280;69915;54.862;10.730;2023-07-13T07:18:52;101003.78;;;19.28;72.59
80566;BME280;69915;54.862;10.730;2023-07-13T07:21:18;101007.75;;;19.63;72.33
80566;BME280;69915;54.862;10.730;2023-07-13T07:23:44;101023.47;;;20.07;70.09
80566;BME280;69915;54.862;10.730;2023-07-13T07:26:10;101025.97;;;20.13;69.00
80566;BME280;69915;54.862;10.730;2023-07-13T07:28:36;101021.91;;;20.34;69.99
80566;BME280;69915;54.862;10.730;2023-07-13T07:31:01;101024.47;;;20.39;68.34
80566;BME280;69915;54.862;10.730;2023-07-13T07:33:27;101010.72;;;20.06;67.10
80566;BME280;69915;54.862;10.730;2023-07-13T07:35:52;101018.25;;;19.94;65.92
80566;BME280;69915;54.862;10.730;2023-07-13T07:38:18;101014.06;;;20.36;67.42
80566;BME280;69915;54.862;10.730;2023-07-13T07:40:44;101020.13;;;20.54;64.38
80566;BME280;69915;54.862;10.730;2023-07-13T07:43:11;101009.16;;;20.73;64.11
80566;BME280;69915;54.862;10.730;2023-07-13T07:45:39;101017.81;;;21.43;62.49
80566;BME280;69915;54.862;10.730;2023-07-13T07:48:05;101012.63;;;22.27;61.74
80566;BME280;69915;54.862;10.730;2023-07-13T07:50:31;100999.25;;;22.32;57.83
80566;BME280;69915;54.862;10.730;2023-07-13T07:52:57;101007.50;;;23.28;57.59
80566;BME280;69915;54.862;10.730;2023-07-13T07:55:23;100998.53;;;24.13;54.71
80566;BME280;69915;54.862;10.730;2023-07-13T07:57:49;100983.22;;;23.77;52.54
80566;BME280;69915;54.862;10.730;2023-07-13T08:00:15;101018.16;;;23.42;53.81
80566;BME280;69915;54.862;10.730;2023-07-13T08:02:41;101015.00;;;25.18;53.76
80566;BME280;69915;54.862;10.730;2023-07-13T08:05:08;101013.81;;;24.53;51.84
80566;BME280;69915;54.862;10.730;2023-07-13T08:07:34;101014.88;;;25.08;51.44
80566;BME280;69915;54.862;10.730;2023-07-13T08:10:00;100994.44;;;25.95;49.23
80566;BME280;69915;54.862;10.730;2023-07-13T08:12:26;101013.53;;;25.79;50.38
80566;BME280;69915;54.862;10.730;2023-07-13T08:14:52;101033.97;;;24.99;52.15
80566;BME280;69915;54.862;10.730;2023-07-13T08:17:23;101027.53;;;25.31;51.72
80566;BME280;69915;54.862;10.730;2023-07-13T08:19:50;101030.56;;;25.60;52.24
80566;BME280;69915;54.862;10.730;2023-07-13T08:22:16;101025.25;;;24.41;54.31
80566;BME280;69915;54.862;10.730;2023-07-13T08:24:42;101042.69;;;25.71;52.35
80566;BME280;69915;54.862;10.730;2023-07-13T08:27:11;101045.38;;;26.11;49.67
80566;BME280;69915;54.862;10.730;2023-07-13T08:29:37;101041.78;;;24.23;54.57
80566;BME280;69915;54.862;10.730;2023-07-13T08:32:04;101036.22;;;26.18;50.42
80566;BME280;69915;54.862;10.730;2023-07-13T08:34:29;101048.09;;;26.66;49.37
80566;BME280;69915;54.862;10.730;2023-07-13T08:36:55;101037.50;;;25.73;51.14
80566;BME280;69915;54.862;10.730;2023-07-13T08:39:20;101019.13;;;26.40;49.06
80566;BME280;69915;54.862;10.730;2023-07-13T08:41:51;101038.94;;;26.07;51.53
80566;BME280;69915;54.862;10.730;2023-07-13T08:44:27;101021.97;;;25.82;52.37
80566;BME280;69915;54.862;10.730;2023-07-13T08:46:58;101038.38;;;25.40;52.34
80566;BME280;69915;54.862;10.730;2023-07-13T08:49:25;101016.38;;;24.65;54.81
80566;BME280;69915;54.862;10.730;2023-07-13T08:52:26;101029.34;;;26.08;52.11
80566;BME280;69915;54.862;10.730;2023-07-13T08:54:50;101025.44;;;27.24;50.85
80566;BME280;69915;54.862;10.730;2023-07-13T08:57:21;101011.44;;;25.69;50.19
80566;BME280;69915;54.862;10.730;2023-07-13T08:59:50;100994.91;;;26.04;50.81
80566;BME280;69915;54.862;10.730;2023-07-13T09:02:34;101012.75;;;25.34;51.69
80566;BME280;69915;54.862;10.730;2023-07-13T09:05:10;101016.97;;;25.18;53.22
80566;BME280;69915;54.862;10.730;2023-07-13T09:10:27;101005.31;;;26.07;49.61
80566;BME280;69915;54.862;10.730;2023-07-13T09:15:41;101000.94;;;27.07;49.18
80566;BME280;69915;54.862;10.730;2023-07-13T09:18:18;101003.81;;;26.17;49.75
80566;BME280;69915;54.862;10.730;2023-07-13T09:20:58;101009.41;;;25.18;52.32
80566;BME280;69915;54.862;10.730;2023-07-13T09:23:28;101022.69;;;24.28;54.52
80566;BME280;69915;54.862;10.730;2023-07-13T09:26:04;101009.19;;;24.97;53.65
80566;BME280;69915;54.862;10.730;2023-07-13T09:28:37;101030.09;;;24.77;54.27
80566;BME280;69915;54.862;10.730;2023-07-13T09:31:20;101008.69;;;24.88;52.99
80566;BME280;69915;54.862;10.730;2023-07-13T09:33:49;101011.84;;;24.23;55.87
80566;BME280;69915;54.862;10.730;2023-07-13T09:36:23;101024.19;;;25.59;50.78
80566;BME280;69915;54.862;10.730;2023-07-13T09:38:59;101030.75;;;24.33;54.41
80566;BME280;69915;54.862;10.730;2023-07-13T09:44:11;101007.75;;;24.47;55.82
80566;BME280;69915;54.862;10.730;2023-07-13T09:46:39;101038.34;;;23.58;56.11
80566;BME280;69915;54.862;10.730;2023-07-13T09:49:09;101040.09;;;22.82;58.33
80566;BME280;69915;54.862;10.730;2023-07-13T09:51:34;101032.13;;;23.22;60.42
80566;BME280;69915;54.862;10.730;2023-07-13T09:54:00;101017.94;;;22.89;61.20
80566;BME280;69915;54.862;10.730;2023-07-13T09:56:28;101022.69;;;23.30;57.84
80566;BME280;69915;54.862;10.730;2023-07-13T09:58:58;101027.06;;;22.67;59.70
80566;BME280;69915;54.862;10.730;2023-07-13T10:01:37;101045.91;;;22.73;58.85
80566;BME280;69915;54.862;10.730;2023-07-13T10:04:13;101028.88;;;22.78;59.41
80566;BME280;69915;54.862;10.730;2023-07-13T10:06:40;101029.00;;;23.47;59.38
80566;BME280;69915;54.862;10.730;2023-07-13T10:09:10;101033.94;;;23.57;58.29
80566;BME280;69915;54.862;10.730;2023-07-13T10:11:39;101042.06;;;23.92;59.29
80566;BME280;69915;54.862;10.730;2023-07-13T10:14:24;101026.56;;;24.20;57.07
80566;BME280;69915;54.862;10.730;2023-07-13T10:16:58;101028.44;;;23.87;56.00
80566;BME280;69915;54.862;10.730;2023-07-13T10:19:36;101019.13;;;23.53;57.52
80566;BME280;69915;54.862;10.730;2023-07-13T10:24:37;101048.28;;;23.13;58.57
80566;BME280;69915;54.862;10.730;2023-07-13T10:27:41;101049.19;;;23.40;58.90
80566;BME280;69915;54.862;10.730;2023-07-13T10:30:29;101045.66;;;22.63;60.64
80566;BME280;69915;54.862;10.730;2023-07-13T10:33:02;101048.16;;;23.48;59.75
80566;BME280;69915;54.862;10.730;2023-07-13T10:35:30;101046.78;;;23.39;57.50
80566;BME280;69915;54.862;10.730;2023-07-13T10:38:19;101040.84;;;22.79;58.17
80566;BME280;69915;54.862;10.730;2023-07-13T10:41:11;101037.84;;;22.68;59.80
80566;BME280;69915;54.862;10.730;2023-07-13T10:43:45;101032.59;;;23.05;58.49
80566;BME280;69915;54.862;10.730;2023-07-13T10:46:14;101025.50;;;22.69;60.79
80566;BME280;69915;54.862;10.730;2023-07-13T10:48:42;101021.94;;;23.33;59.55
80566;BME280;69915;54.862;10.730;2023-07-13T10:51:10;101036.44;;;23.39;59.77
80566;BME280;69915;54.862;10.730;2023-07-13T10:53:38;101043.22;;;23.87;59.73
80566;BME280;69915;54.862;10.730;2023-07-13T10:58:41;101031.81;;;23.73;58.18
80566;BME280;69915;54.862;10.730;2023-07-13T11:01:09;101040.91;;;22.44;62.16
80566;BME280;69915;54.862;10.730;2023-07-13T11:03:38;101051.56;;;21.88;64.65
80566;BME280;69915;54.862;10.730;2023-07-13T11:18:45;101061.22;;;22.64;59.23
80566;BME280;69915;54.862;10.730;2023-07-13T11:21:21;101060.69;;;22.39;59.76
80566;BME280;69915;54.862;10.730;2023-07-13T11:24:01;101048.44;;;22.44;57.81
80566;BME280;69915;54.862;10.730;2023-07-13T11:26:57;101089.41;;;21.46;63.87
80566;BME280;69915;54.862;10.730;2023-07-13T11:31:59;101079.44;;;19.61;72.28
80566;BME280;69915;54.862;10.730;2023-07-13T11:34:28;101100.28;;;19.34;71.08
80566;BME280;69915;54.862;10.730;2023-07-13T11:36:56;101084.28;;;18.86;70.90
80566;BME280;69915;54.862;10.730;2023-07-13T11:39:32;101085.25;;;19.02;70.00
80566;BME280;69915;54.862;10.730;2023-07-13T11:42:06;101084.53;;;19.59;72.98
80566;BME280;69915;54.862;10.730;2023-07-13T11:44:34;101088.69;;;19.89;69.42
80566;BME280;69915;54.862;10.730;2023-07-13T11:47:09;101086.84;;;20.30;68.87
80566;BME280;69915;54.862;10.730;2023-07-13T11:49:42;101103.72;;;21.04;68.72
80566;BME280;69915;54.862;10.730;2023-07-13T11:52:12;101083.56;;;21.07;63.88
80566;BME280;69915;54.862;10.730;2023-07-13T11:54:49;101092.88;;;20.72;64.71
80566;BME280;69915;54.862;10.730;2023-07-13T11:57:39;101094.22;;;21.17;67.13
80566;BME280;69915;54.862;10.730;2023-07-13T12:00:20;101095.31;;;21.29;62.54
80566;BME280;69915;54.862;10.730;2023-07-13T12:02:50;101082.56;;;20.72;62.60
80566;BME280;69915;54.862;10.730;2023-07-13T12:05:16;101101.50;;;21.22;62.97
80566;BME280;69915;54.862;10.730;2023-07-13T12:07:43;101087.06;;;21.04;59.95
80566;BME280;69915;54.862;10.730;2023-07-13T12:12:36;101077.47;;;21.45;60.31
80566;BME280;69915;54.862;10.730;2023-07-13T12:15:07;101100.72;;;21.84;60.79
80566;BME280;69915;54.862;10.730;2023-07-13T12:17:34;101081.78;;;21.90;59.09
80566;BME280;69915;54.862;10.730;2023-07-13T12:20:03;101100.47;;;21.74;57.76
80566;BME280;69915;54.862;10.730;2023-07-13T12:22:32;101095.69;;;21.43;60.14
80566;BME280;69915;54.862;10.730;2023-07-13T12:24:59;101097.13;;;21.37;59.89
80566;BME280;69915;54.862;10.730;2023-07-13T12:27:27;101090.16;;;21.74;61.20
80566;BME280;69915;54.862;10.730;2023-07-13T12:30:04;101086.00;;;21.68;61.28
80566;BME280;69915;54.862;10.730;2023-07-13T12:32:31;101088.00;;;21.83;60.61
80566;BME280;69915;54.862;10.730;2023-07-13T12:35:14;101100.13;;;21.91;61.30
80566;BME280;69915;54.862;10.730;2023-07-13T12:37:45;101086.28;;;21.63;59.90
80566;BME280;69915;54.862;10.730;2023-07-13T12:40:20;101095.56;;;21.98;60.07
80566;BME280;69915;54.862;10.730;2023-07-13T12:42:49;101081.16;;;21.96;61.17
80566;BME280;69915;54.862;10.730;2023-07-13T12:45:24;101069.66;;;22.13;60.74
80566;BME280;69915;54.862;10.730;2023-07-13T12:47:57;101100.56;;;22.43;60.31
80566;BME280;69915;54.862;10.730;2023-07-13T12:50:30;101086.44;;;22.52;59.83
80566;BME280;69915;54.862;10.730;2023-07-13T12:53:05;101098.03;;;21.72;61.47
80566;BME280;69915;54.862;10.730;2023-07-13T12:55:45;101078.25;;;21.14;64.30
80566;BME280;69915;54.862;10.730;2023-07-13T12:58:26;101082.78;;;21.66;63.79
80566;BME280;69915;54.862;10.730;2023-07-13T13:00:54;101087.09;;;20.92;64.20
80566;BME280;69915;54.862;10.730;2023-07-13T13:03:26;101106.75;;;20.32;64.89
80566;BME280;69915;54.862;10.730;2023-07-13T13:06:04;101109.50;;;19.83;65.48
80566;BME280;69915;54.862;10.730;2023-07-13T13:08:32;101119.19;;;20.50;66.45
80566;BME280;69915;54.862;10.730;2023-07-13T13:10:58;101082.75;;;21.07;65.20
80566;BME280;69915;54.862;10.730;2023-07-13T13:13:23;101103.69;;;20.89;67.05
80566;BME280;69915;54.862;10.730;2023-07-13T13:15:50;101100.13;;;21.04;64.49
80566;BME280;69915;54.862;10.730;2023-07-13T13:18:23;101116.13;;;20.79;66.47
80566;BME280;69915;54.862;10.730;2023-07-13T13:20:50;101133.78;;;19.86;66.43